Time;durP1;ratioP1;P1;durP2;ratioP2;P2;SDS_P1;SDS_P2;PMS_P1;PMS_P2;Temp;Humidity;BMP_temperature;BMP_pressure;BME280_temperature;BME280_humidity;BME280_pressure;Samples;Min_cycle;Max_cycle;Signal;HPM_P1;HPM_P2
2020/12/29 00:00:40;;;;;;;2.58;1.50;;;6.70;99.90;;;5.92;87.02;98380.97;4118586;28;20031;-69
2020/12/29 00:02:41;;;;;;;4.60;1.90;;;6.70;99.90;;;5.98;88.19;98392.50;4102823;29;20020;-70
2020/12/29 00:04:42;;;;;;;3.95;1.88;;;6.80;99.90;;;5.94;88.03;98393.88;4119889;28;20402;-70
2020/12/29 00:07:03;;;;;;;3.30;1.45;;;6.80;99.90;;;5.82;88.12;98387.47;4119874;28;20030;-70
2020/12/29 00:09:06;;;;;;;1.60;1.50;;;6.80;99.90;;;5.83;88.29;98397.72;4102601;28;20562;-69
2020/12/29 00:11:07;;;;;;;2.97;1.67;;;6.70;99.90;;;5.83;87.89;98402.16;4118324;28;20026;-70
2020/12/29 00:13:09;;;;;;;1.70;1.50;;;6.70;99.90;;;5.80;87.68;98392.03;4102545;29;20058;-69
2020/12/29 00:15:10;;;;;;;2.28;1.48;;;6.70;99.90;;;5.68;88.34;98399.56;4119645;28;20061;-69
2020/12/29 00:17:10;;;;;;;2.10;1.40;;;6.60;99.90;;;5.79;87.98;98403.53;4102811;28;20038;-69
2020/12/29 00:19:20;;;;;;;3.30;1.58;;;6.60;99.90;;;5.60;89.18;98402.28;4119738;28;20031;-69
2020/12/29 00:21:21;;;;;;;2.63;1.60;;;6.60;99.90;;;5.66;89.33;98411.19;4102929;28;20115;-69
2020/12/29 00:23:22;;;;;;;2.15;1.40;;;6.60;99.90;;;5.63;90.15;98416.78;4086488;29;20076;-70
2020/12/29 00:25:23;;;;;;;1.83;1.65;;;6.50;99.90;;;5.45;89.99;98420.59;4102823;29;20027;-70
2020/12/29 00:27:24;;;;;;;3.13;1.80;;;6.40;99.90;;;5.46;90.12;98418.78;4119464;28;20033;-70
2020/12/29 00:29:25;;;;;;;2.20;1.60;;;6.40;99.90;;;5.18;91.43;98421.19;4102566;28;20035;-70
2020/12/29 00:31:26;;;;;;;3.15;2.20;;;6.30;99.90;;;5.55;90.11;98425.56;4119586;28;20030;-69
2020/12/29 00:33:27;;;;;;;3.08;1.50;;;6.30;99.90;;;5.35;91.23;98421.81;4102501;28;20031;-69
2020/12/29 00:35:28;;;;;;;3.72;1.60;;;6.30;99.90;;;5.34;91.82;98435.91;4119646;28;20027;-69
2020/12/29 00:37:29;;;;;;;3.38;1.50;;;6.30;99.90;;;5.47;89.84;98426.44;4119442;28;20034;-69
2020/12/29 00:39:30;;;;;;;1.67;1.40;;;6.30;99.90;;;5.37;90.36;98433.75;4119607;28;20031;-70
2020/12/29 00:41:31;;;;;;;1.73;1.45;;;6.30;99.90;;;5.49;90.73;98434.94;4118876;28;20023;-70
2020/12/29 00:43:32;;;;;;;1.73;1.30;;;6.30;99.90;;;5.46;90.49;98431.84;4102474;28;20035;-69
2020/12/29 00:45:32;;;;;;;3.20;1.65;;;6.40;99.90;;;5.43;91.41;98440.88;4086296;29;20031;-69
2020/12/29 00:47:34;;;;;;;2.75;1.70;;;6.30;99.90;;;5.22;92.58;98437.34;4119392;28;20054;-70
2020/12/29 00:49:38;;;;;;;1.67;1.50;;;6.30;99.90;;;5.37;91.70;98444.22;4102165;28;20020;-69
2020/12/29 00:51:39;;;;;;;2.53;1.60;;;6.30;99.90;;;5.33;92.96;98445.53;4119639;28;20043;-69
2020/12/29 00:53:41;;;;;;;2.10;1.48;;;6.30;99.90;;;5.35;92.63;98440.94;4119497;28;20042;-69
2020/12/29 00:55:41;;;;;;;1.67;1.30;;;6.30;99.90;;;5.40;91.82;98446.47;4119323;28;20375;-69
2020/12/29 00:57:42;;;;;;;1.85;1.63;;;6.30;99.90;;;5.45;91.41;98443.28;4102147;29;20086;-69
2020/12/29 00:59:43;;;;;;;1.35;1.25;;;6.30;99.90;;;5.47;91.54;98434.28;4102380;29;20035;-69
2020/12/29 01:01:44;;;;;;;1.40;1.30;;;6.30;99.90;;;5.49;91.43;98445.38;4102126;29;20020;-69
2020/12/29 01:03:45;;;;;;;2.45;1.60;;;6.40;99.90;;;5.47;90.98;98438.69;4119259;28;20474;-69
2020/12/29 01:05:47;;;;;;;1.20;1.10;;;6.40;99.90;;;5.47;91.00;98442.13;4119305;28;20035;-69
2020/12/29 01:07:48;;;;;;;1.85;1.30;;;6.40;99.90;;;5.40;90.65;98429.97;4102407;29;20074;-70
2020/12/29 01:09:49;;;;;;;2.67;1.50;;;6.40;99.90;;;5.59;90.13;98443.28;4119450;28;20031;-69
2020/12/29 01:11:51;;;;;;;1.83;1.40;;;6.40;99.90;;;5.51;89.92;98438.16;4119053;28;20406;-69
2020/12/29 01:13:51;;;;;;;1.63;1.50;;;6.40;99.90;;;5.43;90.25;98438.25;4119214;28;20027;-70
2020/12/29 01:15:53;;;;;;;1.48;1.30;;;6.40;99.90;;;5.58;89.84;98444.28;4119415;28;20082;-70
2020/12/29 01:17:53;;;;;;;2.25;1.20;;;6.40;99.90;;;5.59;89.55;98440.69;4102143;29;20443;-69
2020/12/29 01:19:54;;;;;;;1.40;1.30;;;6.40;99.90;;;5.64;88.99;98441.97;4102067;29;20035;-70
2020/12/29 01:21:55;;;;;;;1.92;1.48;;;6.40;99.90;;;5.35;90.33;98440.94;4117828;28;20031;-70
2020/12/29 01:23:56;;;;;;;1.30;1.20;;;6.40;99.90;;;5.37;90.35;98440.78;4119517;28;20026;-70
2020/12/29 01:25:57;;;;;;;2.15;1.40;;;6.40;99.90;;;5.26;91.12;98444.63;4085920;29;20122;-69
2020/12/29 01:27:58;;;;;;;1.80;1.27;;;6.30;99.90;;;5.40;91.20;98450.88;4119078;28;20483;-69
2020/12/29 01:29:59;;;;;;;2.60;1.42;;;6.30;99.90;;;5.40;90.79;98456.91;4103146;28;20023;-69
2020/12/29 01:32:00;;;;;;;1.50;1.40;;;6.30;99.90;;;5.38;90.82;98447.59;4122231;28;20038;-70
2020/12/29 01:34:01;;;;;;;1.92;1.73;;;6.30;99.90;;;5.24;91.36;98467.53;4104840;28;20027;-69
2020/12/29 01:36:02;;;;;;;1.30;1.17;;;6.30;99.90;;;5.25;90.98;98457.88;4105009;28;20046;-69
2020/12/29 01:38:03;;;;;;;2.45;1.40;;;6.20;99.90;;;5.16;91.97;98467.59;4121894;28;20078;-69
2020/12/29 01:40:04;;;;;;;1.55;1.40;;;6.20;99.90;;;5.21;91.81;98465.25;4122212;28;20077;-70
2020/12/29 01:42:11;;;;;;;1.73;1.52;;;6.30;99.90;;;5.09;92.49;98469.28;4104508;28;20419;-69
2020/12/29 01:44:20;;;;;;;2.78;1.45;;;6.20;99.90;;;5.16;93.59;98472.81;4104719;28;20035;-70
2020/12/29 01:46:21;;;;;;;2.65;1.50;;;6.10;99.90;;;5.20;93.23;98466.25;4121864;28;20027;-70
2020/12/29 01:48:22;;;;;;;2.38;1.38;;;6.10;99.90;;;5.20;92.25;98476.69;4124586;28;20026;-70
2020/12/29 01:50:25;;;;;;;1.90;1.58;;;6.20;99.90;;;5.15;92.13;98479.03;4104565;28;20038;-70
2020/12/29 01:52:26;;;;;;;1.50;1.40;;;6.10;99.90;;;5.15;93.12;98476.41;4104844;28;20093;-70
2020/12/29 01:54:28;;;;;;;2.30;1.30;;;6.10;99.90;;;5.30;92.29;98487.72;4121794;28;20031;-70
2020/12/29 01:56:37;;;;;;;1.60;1.50;;;6.10;99.90;;;5.30;92.17;98472.03;4104601;28;20038;-70
2020/12/29 01:58:38;;;;;;;2.13;1.50;;;6.10;99.90;;;5.18;91.71;98483.91;4104833;28;20038;-69
2020/12/29 02:00:39;;;;;;;1.30;1.20;;;6.10;99.90;;;5.21;91.85;98473.09;4104753;29;20529;-70
2020/12/29 02:02:41;;;;;;;1.45;1.25;;;6.10;99.90;;;5.18;92.33;98483.91;4121637;28;20042;-70
2020/12/29 02:04:42;;;;;;;1.67;1.27;;;6.20;99.90;;;5.32;91.24;98484.91;4104651;29;20027;-70
2020/12/29 02:06:44;;;;;;;1.90;1.30;;;6.20;99.90;;;5.33;91.96;98492.59;4104603;28;20024;-70
2020/12/29 02:08:46;;;;;;;3.08;1.40;;;6.10;99.90;;;5.27;92.10;98498.53;4121537;28;20069;-69
2020/12/29 02:10:47;;;;;;;2.65;1.40;;;6.20;99.90;;;5.09;93.04;98495.41;4104079;29;20058;-70
2020/12/29 02:12:48;;;;;;;1.40;1.30;;;6.10;99.90;;;5.08;92.78;98496.41;4104495;28;20034;-70
2020/12/29 02:14:49;;;;;;;1.40;1.30;;;6.10;99.90;;;5.30;92.19;98502.59;4121556;28;20047;-70
2020/12/29 02:16:50;;;;;;;2.05;1.67;;;6.20;99.90;;;5.35;92.06;98493.22;4121489;28;20045;-70
2020/12/29 02:18:51;;;;;;;2.15;1.42;;;6.10;99.90;;;5.43;91.14;98505.41;4121320;28;20027;-70
2020/12/29 02:20:52;;;;;;;1.40;1.30;;;6.20;99.90;;;5.29;91.05;98520.06;4104324;29;20070;-70
2020/12/29 02:22:53;;;;;;;3.35;1.38;;;6.20;99.90;;;5.11;91.77;98513.56;4104208;28;20499;-70
2020/12/29 02:25:00;;;;;;;1.67;1.50;;;6.20;99.90;;;5.16;93.05;98516.44;4104170;29;20038;-70
2020/12/29 02:27:05;;;;;;;2.80;1.50;;;6.10;99.90;;;5.29;91.53;98517.44;4103948;28;20098;-70
2020/12/29 02:29:06;;;;;;;2.13;1.17;;;6.10;99.90;;;5.25;92.28;98521.44;4104220;29;20081;-70
2020/12/29 02:31:07;;;;;;;1.83;1.60;;;6.20;99.90;;;5.32;91.68;98537.19;4121263;28;20038;-70
2020/12/29 02:33:08;;;;;;;1.38;1.17;;;6.20;99.90;;;5.38;91.42;98524.25;4121033;28;20026;-70
2020/12/29 02:35:12;;;;;;;2.70;1.25;;;6.20;99.90;;;5.52;91.87;98533.13;4103903;29;20055;-70
2020/12/29 02:37:13;;;;;;;2.17;1.35;;;6.20;99.90;;;5.59;90.61;98540.06;4104170;28;20356;-70
2020/12/29 02:39:14;;;;;;;1.52;1.40;;;6.30;99.90;;;5.52;90.97;98540.97;4103908;29;20556;-70
2020/12/29 02:41:19;;;;;;;1.30;1.20;;;6.30;99.90;;;5.52;91.70;98541.78;4102634;28;20031;-70
2020/12/29 02:43:20;;;;;;;2.28;1.20;;;6.20;99.90;;;5.38;91.52;98541.72;4120094;28;20129;-70
2020/12/29 02:45:20;;;;;;;2.50;1.65;;;6.20;99.90;;;5.32;91.86;98551.09;4103914;28;20023;-70
2020/12/29 02:47:21;;;;;;;2.28;1.50;;;6.20;99.90;;;5.30;91.99;98542.63;4120913;28;20066;-70
2020/12/29 02:49:22;;;;;;;4.97;1.98;;;6.20;99.90;;;5.52;91.07;98543.56;4123284;28;20380;-70
2020/12/29 02:51:23;;;;;;;3.78;2.35;;;6.20;99.90;;;5.55;91.01;98554.47;4121051;28;20031;-70
2020/12/29 02:53:24;;;;;;;3.30;1.33;;;6.20;99.90;;;5.56;90.35;98550.06;4120850;28;20038;-70
2020/12/29 02:55:26;;;;;;;3.33;1.52;;;6.20;99.90;;;5.35;91.14;98537.66;4103494;28;20046;-70
2020/12/29 02:57:27;;;;;;;2.75;1.98;;;6.20;99.90;;;5.50;91.62;98543.75;4120570;28;20023;-70
2020/12/29 02:59:28;;;;;;;2.78;1.75;;;6.20;99.90;;;5.41;91.19;98542.19;4103659;28;20027;-70
2020/12/29 03:01:29;;;;;;;1.52;1.35;;;6.10;99.90;;;5.46;91.23;98546.91;4103765;28;20106;-70
2020/12/29 03:03:29;;;;;;;3.20;1.83;;;6.10;99.90;;;5.49;91.08;98544.75;4103652;28;20032;-70
2020/12/29 03:05:30;;;;;;;6.68;1.70;;;6.10;99.90;;;5.31;92.23;98552.09;4120674;28;20031;-70
2020/12/29 03:07:31;;;;;;;1.65;1.40;;;6.10;99.90;;;5.45;92.16;98540.03;4103593;29;20121;-70
2020/12/29 03:09:32;;;;;;;1.58;1.48;;;6.10;99.90;;;5.16;92.24;98543.38;4120758;28;20023;-70
2020/12/29 03:11:33;;;;;;;2.45;1.50;;;6.10;99.90;;;5.15;92.94;98541.75;4087313;29;20035;-70
2020/12/29 03:13:34;;;;;;;2.88;1.67;;;6.10;99.90;;;5.30;92.45;98552.25;4103538;29;20473;-70
2020/12/29 03:15:35;;;;;;;2.72;1.23;;;6.10;99.90;;;5.37;92.02;98551.38;4119315;28;20026;-70
2020/12/29 03:17:36;;;;;;;3.95;1.67;;;6.10;99.90;;;5.34;91.63;98540.47;4120547;28;20038;-70
2020/12/29 03:19:37;;;;;;;3.17;1.50;;;6.10;99.90;;;5.44;91.31;98554.91;4119284;28;20034;-69
2020/12/29 03:21:38;;;;;;;3.15;1.50;;;6.10;99.90;;;5.35;92.19;98548.13;4120475;28;20034;-70
2020/12/29 03:23:39;;;;;;;3.63;1.73;;;6.10;99.90;;;5.43;91.74;98555.91;4120335;28;20031;-70
2020/12/29 03:25:40;;;;;;;3.92;1.92;;;6.10;99.90;;;5.15;92.45;98548.78;4120305;28;20117;-70
2020/12/29 03:27:40;;;;;;;3.08;1.80;;;6.10;99.90;;;5.30;92.26;98547.03;4087345;29;20079;-70
2020/12/29 03:29:41;;;;;;;2.17;1.70;;;6.10;99.90;;;5.35;91.62;98555.13;4120312;28;20054;-70
2020/12/29 03:31:45;;;;;;;3.47;1.58;;;6.00;99.90;;;5.43;91.60;98568.16;4103189;29;20083;-70
2020/12/29 03:33:46;;;;;;;4.43;1.70;;;6.10;99.90;;;5.36;91.63;98567.22;4103466;28;20032;-70
2020/12/29 03:35:47;;;;;;;2.38;1.30;;;6.10;99.90;;;5.44;91.84;98575.00;4120323;28;20074;-70
2020/12/29 03:37:48;;;;;;;3.55;1.50;;;6.10;99.90;;;5.43;91.23;98571.59;4120296;28;20058;-70
2020/12/29 03:39:51;;;;;;;3.88;1.90;;;6.10;99.90;;;5.34;91.97;98577.06;4120013;28;20031;-70
2020/12/29 03:41:52;;;;;;;2.42;1.65;;;6.10;99.90;;;5.40;92.16;98576.38;4118705;28;20043;-70
2020/12/29 03:43:53;;;;;;;2.50;1.73;;;6.10;99.90;;;5.45;91.09;98574.84;4103081;29;20042;-70
2020/12/29 03:45:54;;;;;;;3.50;2.10;;;6.10;99.90;;;5.38;91.88;98579.13;4102957;29;20414;-70
2020/12/29 03:47:55;;;;;;;4.90;2.13;;;6.00;99.90;;;5.43;91.50;98587.28;4102815;28;20020;-70
2020/12/29 03:49:55;;;;;;;1.65;1.35;;;6.00;99.90;;;5.27;91.69;98592.63;4102941;29;20039;-70
2020/12/29 03:51:56;;;;;;;3.40;1.60;;;6.00;99.90;;;5.35;91.56;98594.34;4103043;29;20027;-70
2020/12/29 03:53:57;;;;;;;2.40;1.75;;;6.00;99.90;;;5.31;91.10;98588.69;4102654;28;20038;-70
2020/12/29 03:55:58;;;;;;;6.03;1.80;;;6.00;99.90;;;5.10;92.02;98585.06;4119667;28;20027;-70
2020/12/29 03:57:59;;;;;;;3.95;1.90;;;6.00;99.90;;;5.12;91.86;98598.78;4102740;29;20558;-70
2020/12/29 04:00:00;;;;;;;3.83;1.60;;;5.90;99.90;;;5.28;91.11;98603.91;4102893;29;20031;-70
2020/12/29 04:02:01;;;;;;;2.90;2.13;;;5.90;99.90;;;5.27;90.15;98597.84;4119979;28;20034;-70
2020/12/29 04:04:03;;;;;;;3.22;1.63;;;5.90;99.90;;;5.38;88.78;98596.63;4119843;28;20027;-70
2020/12/29 04:06:03;;;;;;;3.53;1.60;;;5.90;99.90;;;5.29;89.83;98588.03;4102891;28;20035;-70
2020/12/29 04:08:04;;;;;;;3.72;2.10;;;5.90;99.90;;;5.18;90.19;98598.91;4119956;28;20058;-70
2020/12/29 04:10:06;;;;;;;2.65;1.55;;;5.90;99.90;;;5.19;90.01;98618.84;4119752;28;20027;-70
2020/12/29 04:12:07;;;;;;;6.38;2.25;;;5.80;99.90;;;5.23;90.17;98614.03;4119584;28;20026;-70
2020/12/29 04:14:08;;;;;;;6.40;2.00;;;5.80;99.90;;;4.76;90.87;98601.94;4102694;29;20040;-70
2020/12/29 04:16:10;;;;;;;2.50;1.52;;;5.70;99.90;;;4.88;91.40;98603.16;4119846;28;20027;-70
2020/12/29 04:18:11;;;;;;;2.75;1.70;;;5.60;99.90;;;4.84;90.92;98601.88;4102416;28;20027;-70
2020/12/29 04:20:13;;;;;;;3.05;1.40;;;5.60;99.90;;;4.88;91.13;98599.75;4119697;28;20037;-70
2020/12/29 04:22:15;;;;;;;4.07;1.60;;;5.60;99.90;;;4.92;90.68;98603.66;4119546;28;20058;-70
2020/12/29 04:24:15;;;;;;;2.35;1.70;;;5.50;99.90;;;4.86;90.72;98599.09;4119754;28;20027;-69
2020/12/29 04:26:16;;;;;;;3.35;2.33;;;5.50;99.90;;;4.94;90.13;98601.66;4119495;28;20030;-70
2020/12/29 04:28:17;;;;;;;3.15;1.70;;;5.50;99.90;;;4.93;90.20;98610.47;4102384;29;20031;-69
2020/12/29 04:30:18;;;;;;;4.05;1.70;;;5.50;99.90;;;4.83;90.20;98612.50;4119577;28;20514;-70
2020/12/29 04:32:19;;;;;;;6.22;1.73;;;5.50;99.90;;;5.01;89.26;98607.84;4119681;28;20027;-69
2020/12/29 04:34:20;;;;;;;4.15;1.90;;;5.50;99.90;;;4.97;88.84;98611.78;4086514;29;20036;-69
2020/12/29 04:36:21;;;;;;;3.40;1.70;;;5.50;99.90;;;4.84;89.36;98604.50;4102498;28;20042;-69
2020/12/29 04:38:22;;;;;;;6.80;1.80;;;5.50;99.90;;;4.68;89.87;98601.97;4102223;29;20103;-70
2020/12/29 04:40:23;;;;;;;4.25;1.90;;;5.50;99.90;;;4.78;89.52;98607.00;4118313;28;20597;-70
2020/12/29 04:42:24;;;;;;;3.05;2.22;;;5.40;99.90;;;4.69;89.81;98611.41;4102343;28;20047;-69
2020/12/29 04:44:26;;;;;;;4.47;1.90;;;5.40;99.90;;;4.76;89.85;98607.16;4102383;28;20091;-69
2020/12/29 04:46:29;;;;;;;4.53;2.72;;;5.40;99.90;;;4.72;89.80;98610.28;4102589;28;20115;-69
2020/12/29 04:48:31;;;;;;;3.97;2.08;;;5.40;99.90;;;4.83;89.25;98615.94;4119476;28;20069;-69
2020/12/29 04:50:36;;;;;;;4.50;2.03;;;5.40;99.90;;;4.72;89.08;98621.53;4102469;29;20050;-69
2020/12/29 04:52:40;;;;;;;2.10;1.83;;;5.40;99.90;;;4.67;89.60;98613.41;4102468;28;20031;-69
2020/12/29 04:54:41;;;;;;;2.80;1.92;;;5.40;99.90;;;4.39;90.19;98610.41;4102668;28;20095;-69
2020/12/29 04:56:43;;;;;;;2.50;1.48;;;5.40;99.90;;;4.51;90.77;98620.50;4102254;28;20042;-69
2020/12/29 04:58:44;;;;;;;2.85;2.33;;;5.30;99.90;;;4.52;91.15;98609.06;4102256;29;20031;-70
2020/12/29 05:00:46;;;;;;;3.35;1.77;;;5.30;99.90;;;4.69;90.13;98614.03;4102109;29;20031;-69
2020/12/29 05:02:47;;;;;;;3.63;1.98;;;5.30;99.90;;;4.66;90.54;98619.59;4086421;29;20114;-69
2020/12/29 05:04:48;;;;;;;1.85;1.50;;;5.30;99.90;;;4.79;89.04;98619.06;4120470;28;20026;-69
2020/12/29 05:06:53;;;;;;;4.18;1.70;;;5.30;99.90;;;4.59;89.73;98613.44;4089304;29;20027;-70
2020/12/29 05:08:54;;;;;;;;;;;5.30;99.90;;;4.63;89.77;98619.94;4122870;28;20067;-70
2020/12/29 05:10:55;;;;;;;2.33;1.65;;;5.40;99.90;;;4.77;89.87;98623.63;4122450;28;19910;-70
2020/12/29 05:12:56;;;;;;;3.92;1.60;;;5.30;99.90;;;4.58;89.89;98630.09;4122575;28;20089;-70
2020/12/29 05:14:57;;;;;;;3.15;1.73;;;5.30;99.90;;;4.55;90.63;98632.22;4105253;29;20027;-70
2020/12/29 05:16:57;;;;;;;4.13;2.00;;;5.20;99.90;;;4.44;90.78;98630.78;4122279;28;20034;-70
2020/12/29 05:18:58;;;;;;;2.97;1.80;;;5.20;99.90;;;4.21;92.32;98640.34;4105360;29;20495;-70
2020/12/29 05:21:00;;;;;;;3.45;1.58;;;5.10;99.90;;;4.31;92.34;98636.53;4105186;28;20034;-70
2020/12/29 05:23:01;;;;;;;2.90;1.45;;;5.10;99.90;;;4.54;91.17;98638.44;4122369;28;20029;-70
2020/12/29 05:25:04;;;;;;;2.92;1.67;;;5.10;99.90;;;4.44;91.51;98630.78;4122315;28;20027;-70
2020/12/29 05:27:06;;;;;;;2.65;1.70;;;5.10;99.90;;;4.41;91.22;98626.72;4088990;29;20586;-70
2020/12/29 05:29:11;;;;;;;6.47;2.20;;;5.10;99.90;;;4.46;90.94;98634.88;4105171;28;20054;-70
2020/12/29 05:31:12;;;;;;;6.85;2.03;;;5.10;99.90;;;4.29;91.69;98633.28;4122200;28;20033;-70
2020/12/29 05:33:13;;;;;;;6.05;2.00;;;5.00;99.90;;;4.34;90.68;98633.59;4122063;28;20081;-70
2020/12/29 05:35:15;;;;;;;3.20;1.85;;;5.00;99.90;;;4.39;90.80;98633.09;4122268;28;20037;-70
2020/12/29 05:37:17;;;;;;;5.18;2.13;;;5.00;99.90;;;4.27;92.11;98631.84;4122234;28;20062;-70
2020/12/29 05:39:23;;;;;;;3.85;2.08;;;4.90;99.90;;;4.34;91.08;98643.22;4122025;28;20030;-70
2020/12/29 05:41:24;;;;;;;6.35;2.20;;;4.90;99.90;;;3.97;92.75;98638.59;4104693;28;20031;-70
2020/12/29 05:43:32;;;;;;;4.05;2.17;;;4.80;99.90;;;4.14;92.53;98637.56;4105160;29;20514;-70
2020/12/29 05:45:34;;;;;;;2.65;1.95;;;4.80;99.90;;;4.19;91.83;98644.88;4105049;29;20031;-70
2020/12/29 05:47:35;;;;;;;4.07;2.53;;;4.80;99.90;;;4.13;91.74;98642.94;4088784;29;20031;-70
2020/12/29 05:49:36;;;;;;;3.30;1.88;;;4.80;99.90;;;4.20;91.79;98652.56;4105774;28;20031;-70
2020/12/29 05:51:39;;;;;;;6.07;2.63;;;4.80;99.90;;;4.11;92.14;98660.56;4104651;29;20110;-70
2020/12/29 05:53:41;;;;;;;3.85;2.20;;;4.80;99.90;;;4.25;91.89;98646.81;4104882;28;20070;-70
2020/12/29 05:55:46;;;;;;;7.20;2.03;;;4.80;99.90;;;4.18;91.95;98651.88;4121719;28;20030;-70
2020/12/29 05:58:09;;;;;;;5.22;2.20;;;4.80;99.90;;;4.33;90.45;98662.50;4121573;28;20034;-70
2020/12/29 06:00:10;;;;;;;3.55;2.05;;;4.80;99.90;;;4.25;91.17;98658.09;4105886;28;20031;-70
2020/12/29 06:02:11;;;;;;;4.03;1.90;;;4.90;99.90;;;4.14;91.53;98650.63;4104430;28;20127;-70
2020/12/29 06:04:12;;;;;;;4.38;2.22;;;4.80;99.90;;;4.06;91.84;98661.03;4121537;28;20078;-70
2020/12/29 06:06:15;;;;;;;4.97;2.88;;;4.90;99.90;;;4.24;91.31;98671.31;4104495;29;20027;-70
2020/12/29 06:08:17;;;;;;;6.43;2.20;;;4.80;99.90;;;4.37;91.03;98682.03;4104581;28;20118;-70
2020/12/29 06:10:18;;;;;;;5.13;2.25;;;4.90;99.90;;;4.34;90.23;98677.16;4104229;28;20422;-69
2020/12/29 06:12:32;;;;;;;5.80;3.42;;;4.90;99.90;;;4.46;90.15;98684.47;4104250;28;20027;-70
2020/12/29 06:14:46;;;;;;;5.82;2.13;;;4.90;99.90;;;4.39;90.63;98683.50;4104275;28;20027;-69
2020/12/29 06:16:48;;;;;;;5.15;2.10;;;4.90;99.90;;;4.29;90.27;98688.09;4105219;28;20051;-70
2020/12/29 06:18:55;;;;;;;5.05;2.60;;;4.90;99.90;;;4.20;91.42;98686.47;4121261;28;20094;-70
2020/12/29 06:21:02;;;;;;;5.32;2.92;;;4.80;99.90;;;4.29;90.27;98669.00;4104266;28;20031;-69
2020/12/29 06:23:06;;;;;;;6.68;2.40;;;4.90;99.90;;;3.98;91.73;98679.31;4104584;28;20023;-69
2020/12/29 06:25:15;;;;;;;7.50;2.58;;;4.80;99.90;;;4.06;91.38;98694.16;4104071;29;20031;-70
2020/12/29 06:27:16;;;;;;;3.35;2.97;;;4.80;99.90;;;3.81;93.00;98688.97;4104796;28;20048;-70
2020/12/29 06:29:21;;;;;;;5.05;2.80;;;4.80;99.90;;;4.02;92.38;98695.47;4104100;29;20042;-70
2020/12/29 06:31:30;;;;;;;6.10;2.30;;;4.70;99.90;;;4.11;91.52;98700.53;4121234;28;20031;-70
2020/12/29 06:33:31;;;;;;;7.15;2.20;;;4.70;99.90;;;4.00;91.43;98703.47;4103973;28;20087;-70
2020/12/29 06:35:33;;;;;;;4.78;2.20;;;4.70;99.90;;;3.81;91.95;98698.56;4104018;29;20029;-70
2020/12/29 06:37:42;;;;;;;6.75;2.10;;;4.60;99.90;;;4.09;90.65;98701.66;4121137;28;20509;-70
2020/12/29 06:39:48;;;;;;;3.63;2.75;;;4.70;99.90;;;3.97;91.52;98698.56;4104088;28;20027;-69
2020/12/29 06:41:50;;;;;;;6.18;2.30;;;4.60;99.90;;;4.00;91.72;98719.13;4103521;28;20043;-70
2020/12/29 06:43:52;;;;;;;10.98;3.55;;;4.60;99.90;;;3.98;91.19;98712.41;4103830;28;20023;-70
2020/12/29 06:46:09;;;;;;;4.55;2.13;;;4.60;99.90;;;3.97;91.75;98714.22;4103647;28;20028;-70
2020/12/29 06:48:17;;;;;;;5.50;2.05;;;4.60;99.90;;;3.84;91.31;98706.88;4108600;28;20024;-70
2020/12/29 06:50:32;;;;;;;6.65;3.00;;;4.60;99.90;;;4.07;90.84;98714.84;4103756;28;20550;-70
2020/12/29 06:52:33;;;;;;;8.13;3.00;;;4.50;99.90;;;4.10;89.68;98719.75;4103670;29;20114;-70
2020/12/29 06:54:57;;;;;;;10.90;2.33;;;4.50;99.90;;;3.82;91.32;98715.84;4120818;28;20426;-70
2020/12/29 06:57:01;;;;;;;5.28;2.40;;;4.60;99.90;;;3.87;92.08;98714.38;4104662;28;20027;-70
2020/12/29 06:59:02;;;;;;;5.53;2.83;;;4.50;99.90;;;3.91;91.65;98720.09;4103548;28;20042;-70
2020/12/29 07:01:25;;;;;;;5.93;2.20;;;4.50;99.90;;;3.92;91.30;98716.50;4103390;28;20027;-69
2020/12/29 07:03:33;;;;;;;7.95;3.28;;;4.50;99.90;;;3.92;91.67;98717.31;4103569;28;20028;-70
2020/12/29 07:05:37;;;;;;;6.80;3.08;;;4.40;99.90;;;3.95;91.36;98723.16;4120603;28;20023;-70
2020/12/29 07:07:53;;;;;;;7.53;3.30;;;4.40;99.90;;;3.98;90.49;98730.66;4120811;28;20027;-69
2020/12/29 07:10:10;;;;;;;5.50;3.63;;;4.50;99.90;;;3.93;90.87;98728.56;4103292;29;20046;-70
2020/12/29 07:12:11;;;;;;;6.10;2.67;;;4.40;99.90;;;3.97;90.28;98727.28;4103326;28;20069;-69
2020/12/29 07:14:12;;;;;;;9.95;3.50;;;4.40;99.90;;;3.87;90.51;98743.06;4120578;28;20402;-69
2020/12/29 07:16:13;;;;;;;7.72;3.25;;;4.40;99.90;;;3.76;91.72;98737.38;4087416;29;20040;-70
2020/12/29 07:18:27;;;;;;;7.05;3.38;;;4.40;99.90;;;3.93;91.68;98739.00;4120348;28;20026;-69
2020/12/29 07:20:36;;;;;;;4.80;2.60;;;4.40;99.90;;;3.97;89.88;98742.09;4087134;29;20034;-69
2020/12/29 07:22:37;;;;;;;7.03;4.13;;;4.40;99.90;;;3.81;91.15;98748.13;4119300;28;20033;-69
2020/12/29 07:24:40;;;;;;;6.90;3.00;;;4.30;99.90;;;3.72;91.14;98751.69;4103303;29;20027;-70
2020/12/29 07:26:41;;;;;;;7.95;3.15;;;4.30;99.90;;;3.73;91.86;98745.50;4103053;28;20027;-69
2020/12/29 07:28:42;;;;;;;10.38;3.22;;;4.30;99.90;;;3.72;91.45;98754.31;4102769;28;20019;-70
2020/12/29 07:30:44;;;;;;;4.90;2.75;;;4.30;99.90;;;3.70;92.20;98754.44;4120486;28;20073;-69
2020/12/29 07:32:45;;;;;;;7.75;2.92;;;4.30;99.90;;;3.75;91.40;98754.81;4103077;29;20035;-69
2020/12/29 07:34:49;;;;;;;7.53;2.50;;;4.30;99.90;;;3.87;91.29;98757.91;4103086;29;20039;-69
2020/12/29 07:36:50;;;;;;;5.68;2.78;;;4.30;99.90;;;3.80;91.30;98762.13;4103073;29;20039;-69
2020/12/29 07:38:51;;;;;;;7.47;2.58;;;4.20;99.90;;;3.71;91.52;98753.47;4120203;28;20139;-69
2020/12/29 07:40:53;;;;;;;6.50;2.85;;;4.20;99.90;;;3.81;90.96;98763.75;4097770;29;20035;-69
2020/12/29 07:42:54;;;;;;;6.90;2.30;;;4.20;99.90;;;3.74;91.57;98767.97;4119908;28;20047;-69
2020/12/29 07:44:55;;;;;;;6.85;3.30;;;4.20;99.90;;;3.72;91.65;98760.34;4120176;28;20450;-69
2020/12/29 07:46:55;;;;;;;4.72;2.40;;;4.20;99.90;;;3.60;92.12;98761.63;4103026;29;20082;-69
2020/12/29 07:48:57;;;;;;;6.72;3.88;;;4.20;99.90;;;3.52;92.66;98777.25;4105902;28;20071;-69
2020/12/29 07:50:59;;;;;;;9.23;2.60;;;4.10;99.90;;;3.60;92.98;98776.44;4119988;28;20059;-69
2020/12/29 07:53:09;;;;;;;10.63;3.60;;;4.10;99.90;;;3.57;92.23;98774.16;4102791;29;20031;-69
2020/12/29 07:55:13;;;;;;;8.88;2.67;;;4.10;99.90;;;3.64;91.55;98772.53;4102667;28;20034;-70
2020/12/29 07:57:14;;;;;;;8.45;2.97;;;4.10;99.90;;;3.53;91.88;98776.25;4102862;29;20066;-70
2020/12/29 07:59:15;;;;;;;6.60;2.65;;;4.10;99.90;;;3.65;91.84;98779.38;4102451;29;20042;-70
2020/12/29 08:01:15;;;;;;;6.22;3.60;;;4.10;99.90;;;3.54;91.02;98769.25;4102839;29;20526;-69
2020/12/29 08:03:18;;;;;;;6.68;2.95;;;4.10;99.90;;;3.67;90.61;98785.25;4102500;29;20027;-69
2020/12/29 08:05:31;;;;;;;7.30;3.60;;;4.00;99.90;;;3.57;91.60;98795.81;4119796;28;20018;-69
2020/12/29 08:07:32;;;;;;;13.13;4.18;;;4.00;99.90;;;3.58;92.07;98784.44;4102514;28;20059;-69
2020/12/29 08:09:48;;;;;;;11.10;3.85;;;4.00;99.90;;;3.46;92.33;98790.09;4102814;29;20054;-69
2020/12/29 08:11:49;;;;;;;12.35;4.63;;;4.00;99.90;;;3.39;92.52;98795.13;4119383;28;20037;-69
2020/12/29 08:13:50;;;;;;;10.25;3.58;;;4.00;99.90;;;3.43;92.21;98800.84;4102454;29;20086;-70
2020/12/29 08:15:54;;;;;;;8.82;3.10;;;4.00;99.90;;;3.54;91.40;98793.53;4102663;29;20461;-69
2020/12/29 08:18:07;;;;;;;12.20;5.35;;;4.00;99.90;;;3.45;92.15;98801.47;4102371;29;20029;-69
2020/12/29 08:20:08;;;;;;;12.43;4.70;;;3.90;99.90;;;3.69;90.71;98817.19;4102697;29;20031;-69
2020/12/29 08:22:11;;;;;;;11.50;4.15;;;4.00;99.90;;;3.63;91.01;98804.78;4119699;28;20067;-69
2020/12/29 08:24:12;;;;;;;13.35;4.57;;;4.00;99.90;;;3.50;91.14;98796.59;4102664;29;20031;-69
2020/12/29 08:26:13;;;;;;;9.40;3.50;;;4.00;99.90;;;3.61;91.93;98820.63;4119480;28;20380;-70
2020/12/29 08:28:14;;;;;;;9.07;3.55;;;4.10;99.90;;;3.62;91.26;98816.19;4102523;29;20034;-69
2020/12/29 08:30:16;;;;;;;10.50;3.40;;;4.10;99.90;;;3.51;92.10;98819.09;4102329;29;20027;-69
2020/12/29 08:32:21;;;;;;;7.47;3.42;;;4.10;99.90;;;3.63;91.56;98830.88;4102528;29;20421;-70
2020/12/29 08:34:22;;;;;;;10.93;4.15;;;4.10;99.90;;;3.65;91.46;98824.50;4102833;28;20122;-70
2020/12/29 08:36:28;;;;;;;8.30;4.30;;;4.10;99.90;;;3.67;91.49;98829.59;4102514;29;20027;-69
2020/12/29 08:38:42;;;;;;;8.52;3.70;;;4.20;99.90;;;3.71;91.25;98830.88;4102636;28;20063;-70
2020/12/29 08:41:08;;;;;;;12.90;3.85;;;4.20;99.90;;;3.76;90.69;98829.41;4121745;28;20109;-69
2020/12/29 08:43:09;;;;;;;13.40;4.22;;;4.20;99.90;;;3.44;92.04;98834.53;4122741;28;20047;-70
2020/12/29 08:45:13;;;;;;;11.57;5.07;;;4.20;99.90;;;3.55;92.99;98849.09;4105655;29;20091;-70
2020/12/29 08:47:15;;;;;;;12.25;3.97;;;4.20;99.90;;;3.56;92.68;98848.91;4105888;28;20034;-70